Airfield :







YOU CAN JOIN US ON...

 
LOGIN :

Register | Disclaimer

   EN    FR    IT 

 









Legend :    VFR   Marginal VFR   IFR   Intensive IFR   Very Intensive IFR
Visi :
Ceiling :
>= 8 km
>= 3000ft
5 to 8 km
1000 to 3000 ft
1500m to 5 km
500 to 1000 ft
800 to 1500m
200 to 500 ft
< 800m
< 200 ft
Symbols :   Thunderstorms  Fog  Heavy snow  Heavy precipitations  Wind > 20 kt






- Airport Elevation : 74 ft
- IATA code : STX


TISX - Henri E Rohlsen

CURRENT METAR :
  • 090053Z 12006KT 10SM SCT020 27/22 A2998 RMK AO2 SLP150 T02720222 $

EXPIRED METARs :
  • 082353Z 11007KT 10SM CLR 27/22 A2996 RMK AO2 SLP144 T02720222 10306 20272 53010 $
  • 082253Z 10008KT 10SM FEW019 SCT029 27/22 A2994 RMK AO2 SLP138 T02720222 $
  • 082225Z 11007KT 10SM SCT020 SCT026 28/22 A2994 RMK AO2 T02780222 $

TAF TISX
Valid from the 09 at 00:00 until the 10 at 00:00 UTC


082339Z 0900/0924 09008KT P6SM VCSH SCT025 SCT050
FM090200 08005KT P6SM FEW025 FEW050
FM090600 VRB04KT P6SM VCSH FEW022 SCT040
FM091450 14012KT P6SM FEW030 FEW050



MET'MAP, your aeronautical weather chart ! - Copyright ORBIFLY December 2007 - Disclaimer

ORBIFLY MET'MAP TEAM :

Programming & Development : Alexandra Zaïnal
Concept & original design : Baudouin d'Aumeries
Assistance for programming : Marc-Olivier Méhu
Technical & hardware support : Manuel Goepfert

Contact : metmap@orbifly.com




SOURCES & CREDITS :

   NOAA